Time;durP1;ratioP1;P1;durP2;ratioP2;P2;SDS_P1;SDS_P2;PMS_P1;PMS_P2;Temp;Humidity;BMP_temperature;BMP_pressure;BME280_temperature;BME280_humidity;BME280_pressure;Samples;Min_cycle;Max_cycle;Signal;HPM_P1;HPM_P2
2023/09/22 00:01:12;;;;;;;22.27;14.52;;;14.50;99.90;;;;;;4958214;28;20129;-83
2023/09/22 00:03:38;;;;;;;16.25;12.25;;;14.50;99.90;;;;;;4969572;28;20050;-83
2023/09/22 00:06:03;;;;;;;20.92;13.75;;;14.50;99.90;;;;;;4987916;28;20088;-83
2023/09/22 00:08:30;;;;;;;20.73;14.38;;;14.90;99.90;;;;;;4988550;28;20034;-83
2023/09/22 00:10:55;;;;;;;20.30;14.55;;;14.50;99.90;;;;;;4987826;28;20050;-80
2023/09/22 00:13:21;;;;;;;18.65;13.20;;;14.50;99.90;;;;;;4970353;28;20057;-83
2023/09/22 00:15:47;;;;;;;19.70;13.20;;;14.50;99.90;;;;;;4970149;28;20046;-80
2023/09/22 00:18:12;;;;;;;21.15;14.90;;;14.60;99.90;;;;;;4969908;28;20104;-83
2023/09/22 00:20:38;;;;;;;18.73;14.02;;;14.60;99.90;;;;;;4987750;28;20058;-83
2023/09/22 00:23:04;;;;;;;16.08;12.63;;;15.00;99.90;;;;;;4987727;28;20053;-83
2023/09/22 00:25:31;;;;;;;22.40;15.52;;;14.60;99.90;;;;;;4987246;28;20054;-81
2023/09/22 00:27:57;;;;;;;19.00;14.05;;;14.60;99.90;;;;;;4987571;28;20524;-82
2023/09/22 00:30:23;;;;;;;20.75;14.70;;;14.60;99.90;;;;;;4969810;28;20062;-81
2023/09/22 00:32:49;;;;;;;18.60;13.75;;;14.60;99.90;;;;;;4987552;28;20065;-83
2023/09/22 00:35:14;;;;;;;17.30;13.52;;;14.60;99.90;;;;;;4969976;28;20405;-81
2023/09/22 00:37:40;;;;;;;18.52;13.73;;;14.60;99.90;;;;;;4987940;28;20196;-80
2023/09/22 00:40:08;;;;;;;20.60;14.43;;;14.60;99.90;;;;;;4987010;28;20043;-82
2023/09/22 00:42:34;;;;;;;18.85;14.02;;;14.70;99.90;;;;;;4970167;28;20099;-82
2023/09/22 00:45:00;;;;;;;19.40;14.00;;;15.20;99.90;;;;;;4987449;28;20085;-81
2023/09/22 00:47:26;;;;;;;19.98;14.82;;;14.60;99.90;;;;;;4970315;28;20398;-81
2023/09/22 00:49:53;;;;;;;17.58;13.82;;;14.60;99.90;;;;;;4970403;28;20053;-81
2023/09/22 00:52:21;;;;;;;16.45;13.90;;;14.60;99.90;;;;;;4970304;28;20469;-82
2023/09/22 00:54:49;;;;;;;17.00;14.00;;;14.60;99.90;;;;;;4969474;28;20537;-82
2023/09/22 00:57:15;;;;;;;18.23;14.30;;;14.60;99.90;;;;;;4953925;28;20054;-82
2023/09/22 00:59:41;;;;;;;15.75;13.25;;;14.60;99.90;;;;;;4969999;28;20058;-82
2023/09/22 01:02:07;;;;;;;17.30;13.35;;;14.60;99.90;;;;;;4968485;28;20399;-81
2023/09/22 01:04:34;;;;;;;15.57;13.35;;;14.60;99.90;;;;;;4968720;28;20109;-81
2023/09/22 01:06:59;;;;;;;16.25;13.02;;;14.60;99.90;;;;;;4987464;28;20061;-82
2023/09/22 01:09:25;;;;;;;17.05;13.88;;;14.60;99.90;;;;;;4968585;28;20050;-82
2023/09/22 01:11:51;;;;;;;16.88;13.32;;;14.60;99.90;;;;;;4985497;28;20034;-82
2023/09/22 01:14:17;;;;;;;18.48;14.45;;;14.60;99.90;;;;;;4986950;28;20054;-82
2023/09/22 01:16:42;;;;;;;17.23;14.18;;;14.70;99.90;;;;;;4970525;28;20474;-82
2023/09/22 01:19:14;;;;;;;19.10;14.35;;;15.00;99.90;;;;;;4957129;28;20050;-81
2023/09/22 01:21:40;;;;;;;17.40;13.50;;;14.60;99.90;;;;;;4972837;28;20065;-82
2023/09/22 01:24:07;;;;;;;15.43;13.50;;;14.60;99.90;;;;;;4973131;28;20042;-82
2023/09/22 01:26:32;;;;;;;16.95;13.68;;;14.60;99.90;;;;;;4972953;28;20053;-82
2023/09/22 01:28:58;;;;;;;15.38;12.88;;;14.60;99.90;;;;;;4973166;28;20042;-82
2023/09/22 01:31:24;;;;;;;15.90;13.05;;;14.60;99.90;;;;;;4973173;28;20045;-82
2023/09/22 01:33:49;;;;;;;18.20;13.95;;;14.50;99.90;;;;;;4972833;28;20058;-82
2023/09/22 01:36:15;;;;;;;17.73;13.90;;;14.60;99.90;;;;;;4990596;28;20046;-83
2023/09/22 01:38:41;;;;;;;17.98;14.18;;;14.60;99.90;;;;;;4972900;28;20039;-83
2023/09/22 01:41:07;;;;;;;16.45;13.82;;;14.60;99.90;;;;;;4972778;28;20125;-83
2023/09/22 01:43:32;;;;;;;19.23;14.07;;;14.60;99.90;;;;;;4973233;28;20065;-83
2023/09/22 01:45:58;;;;;;;17.05;13.52;;;14.60;99.90;;;;;;4972359;28;20038;-82
2023/09/22 01:48:24;;;;;;;16.35;13.85;;;14.60;99.90;;;;;;4973259;28;20157;-83
2023/09/22 01:50:50;;;;;;;18.33;14.30;;;14.60;99.90;;;;;;4972609;28;20409;-83
2023/09/22 01:53:16;;;;;;;21.10;15.20;;;14.50;99.90;;;;;;4972905;28;20054;-83
2023/09/22 01:55:41;;;;;;;18.77;14.75;;;15.20;99.90;;;;;;4971472;28;20038;-84
2023/09/22 01:58:09;;;;;;;17.90;14.32;;;14.40;99.90;;;;;;4986832;28;20050;-83
2023/09/22 02:00:35;;;;;;;17.10;13.77;;;14.50;99.90;;;;;;4972185;28;20039;-83
2023/09/22 02:03:02;;;;;;;17.45;14.15;;;14.70;99.90;;;;;;4972140;28;20053;-82
2023/09/22 02:05:27;;;;;;;17.25;13.85;;;14.50;99.90;;;;;;4971123;28;20510;-83
2023/09/22 02:07:53;;;;;;;17.67;14.02;;;14.40;99.90;;;;;;4971937;28;20053;-82
2023/09/22 02:10:19;;;;;;;18.50;14.25;;;14.30;99.90;;;;;;4971226;28;20550;-83
2023/09/22 02:12:45;;;;;;;15.38;13.60;;;14.30;99.90;;;;;;4971207;28;20049;-82
2023/09/22 02:15:12;;;;;;;16.80;14.13;;;14.30;99.90;;;;;;4986777;28;20035;-82
2023/09/22 02:17:41;;;;;;;18.17;14.00;;;14.20;99.90;;;;;;4971723;28;20054;-83
2023/09/22 02:20:17;;;;;;;16.20;13.55;;;14.20;99.90;;;;;;4971495;28;20051;-83
2023/09/22 02:22:47;;;;;;;16.83;12.68;;;14.30;99.90;;;;;;4989253;28;20182;-84
2023/09/22 02:25:19;;;;;;;15.57;13.45;;;14.20;99.90;;;;;;4971699;28;20453;-84
2023/09/22 02:27:45;;;;;;;;;;;14.30;99.90;;;;;;4988407;28;20054;-83
2023/09/22 02:30:11;;;;;;;17.25;12.68;;;14.20;99.90;;;;;;4971908;28;20312;-83
2023/09/22 02:32:40;;;;;;;14.75;12.68;;;14.20;99.90;;;;;;4971154;28;20042;-85
2023/09/22 02:35:05;;;;;;;17.58;13.68;;;14.20;99.90;;;;;;4971197;28;20100;-83
2023/09/22 02:37:31;;;;;;;15.80;12.82;;;14.10;99.90;;;;;;4972412;28;20054;-83
2023/09/22 02:39:57;;;;;;;17.15;13.40;;;14.10;99.90;;;;;;4987820;28;20501;-84
2023/09/22 02:42:23;;;;;;;18.30;14.13;;;14.10;99.90;;;;;;4988802;28;20058;-84
2023/09/22 02:44:48;;;;;;;19.65;14.48;;;14.10;99.90;;;;;;4971569;28;20054;-84
2023/09/22 02:47:14;;;;;;;18.52;13.77;;;14.10;99.90;;;;;;4955123;28;20157;-83
2023/09/22 02:49:40;;;;;;;16.70;13.82;;;14.10;99.90;;;;;;4971329;28;20035;-84
2023/09/22 02:52:05;;;;;;;20.83;13.95;;;14.10;99.90;;;;;;4970706;28;20061;-83
2023/09/22 02:54:31;;;;;;;18.60;14.32;;;14.10;99.90;;;;;;4988105;28;20042;-84
2023/09/22 02:56:57;;;;;;;18.88;14.40;;;14.10;99.90;;;;;;4970426;28;20053;-84
2023/09/22 02:59:22;;;;;;;18.23;14.32;;;14.20;99.90;;;;;;4989119;28;20038;-83
2023/09/22 03:01:49;;;;;;;21.38;15.65;;;14.10;99.90;;;;;;4971122;28;20049;-84
2023/09/22 03:04:15;;;;;;;19.05;14.50;;;14.10;99.90;;;;;;4971088;28;20595;-83
2023/09/22 03:06:40;;;;;;;19.58;14.88;;;14.10;99.90;;;;;;4989131;28;20039;-84
2023/09/22 03:09:06;;;;;;;21.10;15.27;;;14.10;99.90;;;;;;4969997;28;20509;-84
2023/09/22 03:11:36;;;;;;;23.33;15.07;;;14.10;99.90;;;;;;4954346;28;20038;-83
2023/09/22 03:14:03;;;;;;;20.38;15.38;;;14.10;99.90;;;;;;4970732;28;20051;-84
2023/09/22 03:16:29;;;;;;;19.08;13.98;;;14.10;99.90;;;;;;4967207;28;20109;-83
2023/09/22 03:18:58;;;;;;;21.17;14.88;;;14.10;99.90;;;;;;4966819;28;20055;-83
2023/09/22 03:21:24;;;;;;;21.83;15.27;;;14.10;99.90;;;;;;4967475;28;20109;-83
2023/09/22 03:23:50;;;;;;;19.77;15.07;;;14.00;99.90;;;;;;4969508;28;20406;-83
2023/09/22 03:26:17;;;;;;;20.65;14.75;;;14.00;99.90;;;;;;4966539;28;20050;-84
2023/09/22 03:28:43;;;;;;;21.13;15.50;;;14.00;99.90;;;;;;4967219;28;20074;-82
2023/09/22 03:31:09;;;;;;;23.00;15.15;;;14.10;99.90;;;;;;4966824;28;20047;-83
2023/09/22 03:33:35;;;;;;;20.42;14.05;;;14.00;99.90;;;;;;4967679;28;20046;-83
2023/09/22 03:36:01;;;;;;;20.55;13.45;;;14.00;99.90;;;;;;4966411;28;20042;-83
2023/09/22 03:38:28;;;;;;;18.02;12.77;;;14.00;99.90;;;;;;4949974;28;20084;-83
2023/09/22 03:41:00;;;;;;;16.48;12.68;;;14.00;99.90;;;;;;4963777;28;20159;-84
2023/09/22 03:43:26;;;;;;;17.02;11.95;;;14.70;99.90;;;;;;4966339;28;20142;-83
2023/09/22 03:45:53;;;;;;;19.52;11.82;;;14.70;99.90;;;;;;4968348;28;20110;-83
2023/09/22 03:48:20;;;;;;;17.38;11.70;;;14.30;99.90;;;;;;4959834;28;20229;-84
2023/09/22 03:50:46;;;;;;;19.60;12.75;;;13.90;99.90;;;;;;4950787;28;20126;-83
2023/09/22 03:53:12;;;;;;;18.02;12.70;;;14.20;99.90;;;;;;4966582;28;20129;-82
2023/09/22 03:55:38;;;;;;;16.42;11.40;;;13.90;99.90;;;;;;4967151;28;20038;-82
2023/09/22 03:58:03;;;;;;;15.70;12.38;;;14.00;99.90;;;;;;4951729;28;20724;-82
2023/09/22 04:00:30;;;;;;;15.40;12.88;;;13.90;99.90;;;;;;4967457;28;20109;-83
2023/09/22 04:02:56;;;;;;;17.23;12.23;;;13.90;99.90;;;;;;4967524;28;20449;-83
2023/09/22 04:05:21;;;;;;;18.38;13.07;;;13.90;99.90;;;;;;4968591;28;20047;-82
2023/09/22 04:07:47;;;;;;;19.75;12.68;;;13.90;99.90;;;;;;4968636;28;20084;-82
2023/09/22 04:10:13;;;;;;;17.67;12.85;;;14.00;99.90;;;;;;4966217;28;20418;-83
2023/09/22 04:12:38;;;;;;;16.42;12.65;;;13.80;99.90;;;;;;4968017;28;20050;-82
2023/09/22 04:15:04;;;;;;;18.73;13.35;;;13.80;99.90;;;;;;4968159;28;20075;-82
2023/09/22 04:17:34;;;;;;;19.58;13.38;;;13.80;99.90;;;;;;4967082;28;20056;-84
2023/09/22 04:20:07;;;;;;;19.38;13.45;;;13.80;99.90;;;;;;4967064;28;20057;-83
2023/09/22 04:22:34;;;;;;;21.50;14.98;;;13.80;99.90;;;;;;4967972;28;20483;-84
2023/09/22 04:25:00;;;;;;;21.77;15.07;;;13.80;99.90;;;;;;4966443;28;20125;-83
2023/09/22 04:27:32;;;;;;;18.65;14.88;;;13.80;99.90;;;;;;4967368;28;20078;-83
2023/09/22 04:29:59;;;;;;;21.25;15.00;;;13.80;99.90;;;;;;4967353;28;20059;-83
2023/09/22 04:32:28;;;;;;;21.05;15.23;;;13.80;99.90;;;;;;4967309;28;20122;-84
2023/09/22 04:34:58;;;;;;;20.13;14.88;;;13.80;99.90;;;;;;4951071;28;20077;-83
2023/09/22 04:37:23;;;;;;;23.23;16.15;;;14.20;99.90;;;;;;4966786;28;20082;-83
2023/09/22 04:39:49;;;;;;;22.92;16.23;;;13.70;99.90;;;;;;4966554;28;20086;-83
2023/09/22 04:42:15;;;;;;;23.00;15.82;;;13.70;99.90;;;;;;4966740;28;20039;-83
2023/09/22 04:44:40;;;;;;;24.85;16.98;;;13.70;99.90;;;;;;4951256;28;20518;-83
2023/09/22 04:47:06;;;;;;;25.92;17.00;;;13.70;99.90;;;;;;4966684;28;20047;-84
2023/09/22 04:49:32;;;;;;;25.98;16.95;;;13.70;99.90;;;;;;4967480;28;20752;-85
2023/09/22 04:52:00;;;;;;;26.23;17.70;;;13.50;99.90;;;;;;4969667;28;20039;-83
2023/09/22 04:54:26;;;;;;;24.48;18.08;;;13.50;99.90;;;;;;4971596;28;20053;-81
2023/09/22 04:56:51;;;;;;;29.40;18.45;;;13.50;99.90;;;;;;4970443;28;20050;-82
2023/09/22 04:59:17;;;;;;;29.58;19.15;;;13.90;99.90;;;;;;4970433;28;20196;-84
2023/09/22 05:01:43;;;;;;;28.98;19.25;;;13.20;99.90;;;;;;4964768;28;20051;-81
2023/09/22 05:04:09;;;;;;;29.90;19.98;;;13.20;99.90;;;;;;4969483;28;20047;-82
2023/09/22 05:06:35;;;;;;;29.90;19.38;;;13.20;99.90;;;;;;4967071;28;20481;-82
2023/09/22 05:09:00;;;;;;;33.55;21.15;;;13.10;99.90;;;;;;4969936;28;20051;-82
2023/09/22 05:11:26;;;;;;;33.28;20.48;;;13.10;99.90;;;;;;4969582;28;20489;-82
2023/09/22 05:13:52;;;;;;;36.58;21.02;;;13.90;99.90;;;;;;4970598;28;20055;-82
2023/09/22 05:16:18;;;;;;;31.15;20.70;;;13.10;99.90;;;;;;4970370;28;20465;-82
2023/09/22 05:18:44;;;;;;;35.20;22.25;;;13.00;99.90;;;;;;4969685;28;20051;-82
2023/09/22 05:21:09;;;;;;;32.90;21.60;;;13.00;99.90;;;;;;4970299;28;20054;-82
2023/09/22 05:23:36;;;;;;;34.33;21.00;;;13.10;99.90;;;;;;4971595;28;20046;-81
2023/09/22 05:26:09;;;;;;;32.05;21.73;;;13.00;99.90;;;;;;4969711;28;20062;-83
2023/09/22 05:28:36;;;;;;;32.05;21.10;;;13.00;99.90;;;;;;4957761;28;20054;-83
2023/09/22 05:31:04;;;;;;;33.03;21.75;;;13.00;99.90;;;;;;4967971;28;20158;-83
2023/09/22 05:33:31;;;;;;;31.65;21.33;;;13.00;99.90;;;;;;4969471;28;20073;-83
2023/09/22 05:35:57;;;;;;;33.97;21.33;;;13.00;99.90;;;;;;4969961;28;20363;-81
2023/09/22 05:38:23;;;;;;;33.58;20.92;;;13.00;99.90;;;;;;4970314;28;20066;-82
2023/09/22 05:40:48;;;;;;;34.55;19.75;;;13.00;99.90;;;;;;4957130;28;20047;-83
2023/09/22 05:43:25;;;;;;;29.50;20.67;;;13.00;99.90;;;;;;4955764;28;20047;-83
2023/09/22 05:45:57;;;;;;;32.28;20.17;;;13.00;99.90;;;;;;4960490;28;20047;-83
2023/09/22 05:48:23;;;;;;;30.13;20.85;;;13.00;99.90;;;;;;4969103;28;20915;-83
2023/09/22 05:50:59;;;;;;;33.67;20.20;;;13.00;99.90;;;;;;4969840;28;20058;-83
2023/09/22 05:53:26;;;;;;;28.38;18.80;;;13.00;99.90;;;;;;4969824;28;20125;-81
2023/09/22 05:56:06;;;;;;;25.27;18.50;;;13.00;99.90;;;;;;4968714;28;20558;-81
2023/09/22 05:58:35;;;;;;;31.27;18.30;;;13.00;99.90;;;;;;4969360;28;20094;-82
2023/09/22 06:01:11;;;;;;;29.08;18.38;;;13.00;99.90;;;;;;4970641;28;20681;-82
2023/09/22 06:03:38;;;;;;;27.77;17.90;;;13.10;99.90;;;;;;4968608;28;20042;-82
2023/09/22 06:06:11;;;;;;;27.13;17.67;;;13.10;99.90;;;;;;4968933;28;20133;-82
2023/09/22 06:08:39;;;;;;;24.90;16.60;;;13.30;99.90;;;;;;4969400;28;20046;-81
2023/09/22 06:11:06;;;;;;;25.02;17.30;;;13.30;99.90;;;;;;4968007;28;20054;-82
2023/09/22 06:13:32;;;;;;;24.27;16.35;;;13.80;99.90;;;;;;4970811;28;20090;-83
2023/09/22 06:15:58;;;;;;;23.35;15.73;;;13.10;99.90;;;;;;4969597;28;20055;-82
2023/09/22 06:18:24;;;;;;;21.95;14.80;;;13.10;99.90;;;;;;4988453;28;20051;-81
2023/09/22 06:20:54;;;;;;;23.33;15.13;;;13.20;99.90;;;;;;4989319;28;20542;-80
2023/09/22 06:23:19;;;;;;;26.42;15.73;;;13.10;99.90;;;;;;4989830;28;20054;-82
2023/09/22 06:25:45;;;;;;;23.13;15.43;;;13.20;99.90;;;;;;4955973;28;20827;-81
2023/09/22 06:28:11;;;;;;;23.30;14.57;;;13.20;99.90;;;;;;4972653;28;20556;-83
2023/09/22 06:30:36;;;;;;;22.05;14.70;;;13.30;99.90;;;;;;4970864;28;20170;-82
2023/09/22 06:33:05;;;;;;;21.33;14.00;;;13.30;99.90;;;;;;4972050;28;20054;-82
2023/09/22 06:35:32;;;;;;;21.90;14.82;;;13.10;99.90;;;;;;4955817;28;20453;-83
2023/09/22 06:37:58;;;;;;;21.52;15.70;;;13.30;99.90;;;;;;4940305;28;20046;-82
2023/09/22 06:40:24;;;;;;;18.83;13.70;;;13.40;99.90;;;;;;4971034;28;20112;-82
2023/09/22 06:42:49;;;;;;;20.17;13.68;;;13.40;99.90;;;;;;4989402;28;20050;-81
2023/09/22 06:45:16;;;;;;;21.00;13.82;;;13.40;99.90;;;;;;4971450;28;20113;-82
2023/09/22 06:47:42;;;;;;;21.55;13.43;;;13.50;99.90;;;;;;4971570;28;20058;-83
2023/09/22 06:50:08;;;;;;;19.73;13.30;;;13.60;99.90;;;;;;4972046;28;20097;-83
2023/09/22 06:52:43;;;;;;;18.58;12.75;;;13.50;99.90;;;;;;4972486;28;20054;-82
2023/09/22 06:55:11;;;;;;;17.92;12.90;;;13.60;99.90;;;;;;4988512;28;20125;-82
2023/09/22 06:57:40;;;;;;;16.83;12.82;;;13.70;99.90;;;;;;4989192;28;20128;-84
2023/09/22 07:00:16;;;;;;;17.25;12.60;;;13.70;99.90;;;;;;4970368;28;20050;-82
2023/09/22 07:02:48;;;;;;;19.77;12.60;;;13.70;99.90;;;;;;4971826;28;20078;-82
2023/09/22 07:05:15;;;;;;;20.30;12.07;;;13.80;99.90;;;;;;4955459;28;20057;-81
2023/09/22 07:07:40;;;;;;;17.05;12.27;;;13.80;99.90;;;;;;4987944;28;20046;-83
2023/09/22 07:10:09;;;;;;;17.63;11.93;;;13.90;99.90;;;;;;4988449;28;20061;-83
2023/09/22 07:12:36;;;;;;;14.60;11.63;;;14.00;99.90;;;;;;4970542;28;20508;-84
2023/09/22 07:15:03;;;;;;;15.30;11.52;;;14.00;99.90;;;;;;4969532;28;20128;-83
2023/09/22 07:17:29;;;;;;;16.30;10.90;;;14.00;99.90;;;;;;4987827;28;20062;-82
2023/09/22 07:19:54;;;;;;;16.15;11.52;;;14.60;99.90;;;;;;4970384;28;20051;-83
2023/09/22 07:22:20;;;;;;;13.68;11.48;;;14.10;99.90;;;;;;4986677;28;20104;-83
2023/09/22 07:24:46;;;;;;;15.10;10.75;;;14.10;99.90;;;;;;4953608;28;20034;-83
2023/09/22 07:27:11;;;;;;;14.48;10.20;;;14.00;99.90;;;;;;4987958;28;20757;-84
2023/09/22 07:29:37;;;;;;;15.88;11.23;;;14.00;99.90;;;;;;4970310;28;20097;-84
2023/09/22 07:32:03;;;;;;;20.25;10.90;;;14.10;99.90;;;;;;4969380;28;20050;-83
2023/09/22 07:34:29;;;;;;;14.10;9.93;;;14.00;99.90;;;;;;4969594;28;20472;-84
2023/09/22 07:36:54;;;;;;;13.43;9.50;;;14.40;99.90;;;;;;4969757;28;20061;-84
2023/09/22 07:39:21;;;;;;;13.18;9.80;;;14.00;99.90;;;;;;4969685;28;20051;-83
2023/09/22 07:41:46;;;;;;;17.02;10.32;;;14.00;99.90;;;;;;4968795;28;20045;-83
2023/09/22 07:44:12;;;;;;;14.00;9.75;;;14.10;99.90;;;;;;4968757;28;20410;-84
2023/09/22 07:46:40;;;;;;;18.02;10.05;;;14.10;99.90;;;;;;4970858;28;20050;-83
2023/09/22 07:49:06;;;;;;;13.32;9.90;;;14.20;99.90;;;;;;4970846;28;20418;-84
2023/09/22 07:51:33;;;;;;;13.73;9.43;;;14.20;99.90;;;;;;4954286;28;20046;-83
2023/09/22 07:53:59;;;;;;;11.15;9.20;;;14.20;99.90;;;;;;4987738;28;20158;-84
2023/09/22 07:56:25;;;;;;;17.85;10.00;;;14.20;99.90;;;;;;4972560;28;20148;-85
2023/09/22 07:58:50;;;;;;;12.48;8.77;;;14.30;99.90;;;;;;4969997;28;20129;-85
2023/09/22 08:01:16;;;;;;;12.88;9.15;;;14.30;99.90;;;;;;4970120;28;20111;-83
2023/09/22 08:03:43;;;;;;;13.63;9.45;;;14.30;99.90;;;;;;4969422;28;20093;-83
2023/09/22 08:06:11;;;;;;;12.70;9.30;;;14.80;99.90;;;;;;4967152;28;20573;-83
2023/09/22 08:08:37;;;;;;;12.20;9.27;;;14.50;99.90;;;;;;4970302;28;20429;-84
2023/09/22 08:11:04;;;;;;;11.05;8.63;;;14.60;99.90;;;;;;4969460;28;20049;-83
2023/09/22 08:13:36;;;;;;;9.57;8.30;;;14.80;99.90;;;;;;4987126;28;20050;-83
2023/09/22 08:16:07;;;;;;;11.75;8.25;;;14.80;99.90;;;;;;4961009;28;20046;-82
2023/09/22 08:18:37;;;;;;;10.48;7.45;;;15.10;99.90;;;;;;4970200;28;20581;-82
2023/09/22 08:21:05;;;;;;;9.77;7.63;;;14.90;99.90;;;;;;4970672;28;20054;-83
2023/09/22 08:23:30;;;;;;;9.02;6.72;;;14.90;99.90;;;;;;4987114;28;20053;-83
2023/09/22 08:25:56;;;;;;;8.18;7.25;;;15.00;99.90;;;;;;4970578;28;20042;-83
2023/09/22 08:28:23;;;;;;;9.60;6.35;;;15.00;99.90;;;;;;4991326;28;20077;-83
2023/09/22 08:30:49;;;;;;;6.70;5.75;;;15.10;99.90;;;;;;4973399;28;20478;-81
2023/09/22 08:33:15;;;;;;;9.73;6.13;;;15.20;99.90;;;;;;4974356;28;20043;-83
2023/09/22 08:35:41;;;;;;;7.03;6.03;;;15.20;99.90;;;;;;4974308;28;20180;-82
2023/09/22 08:38:06;;;;;;;7.47;5.45;;;15.30;99.90;;;;;;4991817;28;20125;-83
2023/09/22 08:40:32;;;;;;;5.82;5.20;;;15.80;99.90;;;;;;4972422;28;20053;-82
2023/09/22 08:43:00;;;;;;;8.18;4.72;;;15.40;99.90;;;;;;4974299;28;20081;-81
2023/09/22 08:45:25;;;;;;;10.43;5.10;;;15.70;99.90;;;;;;4991642;28;20089;-81
2023/09/22 08:47:51;;;;;;;15.98;5.30;;;15.40;99.90;;;;;;4989779;28;20704;-81
2023/09/22 08:50:19;;;;;;;5.13;3.92;;;15.50;99.90;;;;;;4991126;28;20135;-81
2023/09/22 08:52:53;;;;;;;7.60;3.70;;;15.40;99.90;;;;;;4990944;28;20038;-82
2023/09/22 08:55:23;;;;;;;4.40;3.28;;;15.50;99.90;;;;;;4991145;28;20042;-82
2023/09/22 08:57:49;;;;;;;6.40;3.50;;;15.40;99.90;;;;;;4974027;28;20089;-81
2023/09/22 09:00:18;;;;;;;4.55;3.05;;;15.40;99.90;;;;;;4972628;28;20137;-82
2023/09/22 09:02:45;;;;;;;5.03;3.50;;;15.30;99.90;;;;;;4990032;28;20125;-82
2023/09/22 09:05:40;;;;;;;5.50;3.03;;;15.30;99.90;;;;;;4973441;28;20082;-82
2023/09/22 09:08:18;;;;;;;3.50;2.50;;;15.30;99.90;;;;;;4978578;28;20165;-82
2023/09/22 09:10:47;;;;;;;2.60;2.22;;;15.00;99.90;;;;;;4990915;28;20053;-83
2023/09/22 09:13:27;;;;;;;2.92;2.10;;;15.00;99.90;;;;;;4955631;28;20066;-82
2023/09/22 09:15:54;;;;;;;3.40;2.00;;;15.00;99.90;;;;;;4971648;28;20528;-84
2023/09/22 09:18:24;;;;;;;3.45;1.73;;;14.90;99.90;;;;;;4973528;28;20042;-81
2023/09/22 09:21:05;;;;;;;3.30;1.95;;;14.90;99.90;;;;;;4973339;28;20133;-82
2023/09/22 09:23:31;;;;;;;2.83;1.83;;;15.10;99.90;;;;;;4973705;28;20577;-81
2023/09/22 09:25:57;;;;;;;4.80;1.95;;;15.20;99.90;;;;;;4972767;28;20124;-82
2023/09/22 09:28:24;;;;;;;1.85;1.75;;;15.30;99.90;;;;;;4990724;28;20038;-81
2023/09/22 09:30:57;;;;;;;4.28;1.80;;;15.40;99.90;;;;;;4987835;28;20058;-78
2023/09/22 09:33:25;;;;;;;5.45;1.85;;;15.60;99.90;;;;;;4988978;28;20050;-82
2023/09/22 09:35:52;;;;;;;4.68;2.03;;;15.60;99.90;;;;;;4971356;28;20035;-81
2023/09/22 09:38:20;;;;;;;3.10;1.90;;;15.80;99.90;;;;;;4989852;28;20521;-81
2023/09/22 09:40:46;;;;;;;2.95;1.67;;;15.90;99.90;;;;;;4989956;28;20050;-84
2023/09/22 09:43:13;;;;;;;2.25;1.70;;;16.50;99.90;;;;;;4972723;28;20054;-81
2023/09/22 09:45:46;;;;;;;1.20;1.10;;;16.20;99.90;;;;;;4990090;28;20053;-82
2023/09/22 09:48:14;;;;;;;1.88;1.35;;;16.30;99.90;;;;;;4972970;28;20046;-82
2023/09/22 09:50:42;;;;;;;2.03;1.40;;;16.50;99.90;;;;;;4956945;28;20469;-82
2023/09/22 09:53:31;;;;;;;1.10;1.00;;;17.00;99.90;;;;;;4968899;28;20502;-81
2023/09/22 09:56:00;;;;;;;2.35;1.17;;;16.70;99.90;;;;;;4960416;28;20413;-79
2023/09/22 09:58:31;;;;;;;1.40;1.00;;;17.20;99.90;;;;;;4988280;28;20101;-79
2023/09/22 10:00:57;;;;;;;1.42;1.30;;;17.00;99.90;;;;;;4989939;28;20663;-80
2023/09/22 10:03:25;;;;;;;1.10;1.00;;;17.10;99.90;;;;;;4990356;28;20453;-80
2023/09/22 10:05:52;;;;;;;1.88;1.00;;;17.00;99.90;;;;;;4955929;28;20422;-79
2023/09/22 10:08:22;;;;;;;3.38;1.10;;;17.10;99.90;;;;;;4989282;28;20130;-80
2023/09/22 10:10:55;;;;;;;1.23;1.10;;;17.10;99.90;;;;;;4970946;28;20046;-80
2023/09/22 10:13:21;;;;;;;1.23;0.90;;;17.30;99.90;;;;;;4970104;28;20041;-79
2023/09/22 10:16:04;;;;;;;2.22;1.00;;;17.40;99.90;;;;;;4971328;28;20042;-80
2023/09/22 10:18:55;;;;;;;1.92;1.33;;;17.40;99.90;;;;;;4990290;28;20077;-78
2023/09/22 10:21:33;;;;;;;1.25;1.05;;;17.40;99.90;;;;;;4971332;28;20105;-78
2023/09/22 10:24:17;;;;;;;1.60;0.82;;;17.40;99.90;;;;;;4976178;28;20042;-78
2023/09/22 10:27:10;;;;;;;3.03;1.00;;;17.60;99.90;;;;;;4972268;28;20457;-79
2023/09/22 10:29:35;;;;;;;2.42;1.10;;;17.60;99.90;;;;;;4981597;28;20093;-78
2023/09/22 10:32:21;;;;;;;2.17;1.42;;;17.60;99.90;;;;;;4973103;28;20050;-79
2023/09/22 10:34:51;;;;;;;1.30;1.00;;;17.60;99.90;;;;;;4968781;28;20047;-79
2023/09/22 10:37:28;;;;;;;1.30;0.98;;;17.60;99.90;;;;;;4954918;28;20042;-78
2023/09/22 10:40:15;;;;;;;3.15;1.10;;;17.40;99.90;;;;;;4982560;28;20054;-80
2023/09/22 10:42:54;;;;;;;1.77;0.98;;;17.30;99.90;;;;;;4958506;28;20128;-79
2023/09/22 10:45:25;;;;;;;1.30;1.02;;;17.30;99.90;;;;;;4968471;28;20194;-79
2023/09/22 10:47:55;;;;;;;2.28;1.10;;;17.30;99.90;;;;;;4988290;28;20046;-79
2023/09/22 10:50:32;;;;;;;1.65;1.08;;;17.20;99.90;;;;;;4954269;28;20506;-78
2023/09/22 10:53:02;;;;;;;2.53;1.20;;;17.00;99.90;;;;;;4971509;28;20652;-79
2023/09/22 10:55:39;;;;;;;2.13;1.30;;;17.00;99.90;;;;;;4970879;28;20145;-80
2023/09/22 10:58:12;;;;;;;1.10;1.00;;;17.00;99.90;;;;;;4989068;28;20050;-79
2023/09/22 11:00:40;;;;;;;1.98;1.40;;;17.10;99.90;;;;;;4971088;28;20072;-80
2023/09/22 11:03:11;;;;;;;1.20;1.00;;;17.20;99.90;;;;;;4988900;28;20097;-80
2023/09/22 11:05:38;;;;;;;2.47;1.10;;;17.40;99.90;;;;;;4988308;28;20054;-79
2023/09/22 11:08:17;;;;;;;1.92;1.08;;;17.40;99.90;;;;;;4969678;28;20521;-79
2023/09/22 11:10:47;;;;;;;2.47;1.05;;;17.50;99.90;;;;;;4970671;28;20058;-79
2023/09/22 11:13:17;;;;;;;2.05;0.90;;;17.70;99.90;;;;;;4971375;28;20054;-79
2023/09/22 11:15:50;;;;;;;3.00;1.20;;;17.90;99.90;;;;;;4988649;28;20065;-79
2023/09/22 11:18:38;;;;;;;4.07;1.20;;;18.00;99.90;;;;;;4985602;28;20051;-81
2023/09/22 11:21:08;;;;;;;3.10;1.20;;;17.80;99.90;;;;;;4968969;28;20442;-80
2023/09/22 11:23:37;;;;;;;1.90;1.10;;;17.60;99.90;;;;;;4988633;28;20080;-80
2023/09/22 11:26:08;;;;;;;1.10;1.00;;;17.40;99.90;;;;;;4969746;28;20046;-81
2023/09/22 11:28:35;;;;;;;2.97;1.10;;;17.30;99.90;;;;;;4987337;28;20124;-80
2023/09/22 11:31:19;;;;;;;1.60;1.10;;;17.40;99.90;;;;;;4954825;28;20057;-81
2023/09/22 11:33:59;;;;;;;1.23;1.13;;;17.30;99.90;;;;;;4953541;28;20137;-80
2023/09/22 11:36:26;;;;;;;1.27;1.08;;;17.40;99.90;;;;;;4986914;28;20506;-80
2023/09/22 11:38:55;;;;;;;1.80;1.17;;;17.70;99.90;;;;;;4969450;28;20429;-81
2023/09/22 11:41:23;;;;;;;2.38;1.65;;;17.90;99.90;;;;;;4969299;28;20056;-81
2023/09/22 11:43:51;;;;;;;1.33;1.15;;;18.00;99.90;;;;;;4986707;28;20035;-81
2023/09/22 11:46:27;;;;;;;2.20;1.40;;;17.90;99.90;;;;;;4986681;28;20084;-81
2023/09/22 11:49:00;;;;;;;1.45;1.35;;;17.90;99.90;;;;;;4970372;28;20042;-81
2023/09/22 11:51:58;;;;;;;1.85;1.63;;;18.00;99.90;;;;;;4988029;28;20042;-81
2023/09/22 11:54:26;;;;;;;2.13;1.40;;;18.10;99.90;;;;;;4988038;28;20054;-80
2023/09/22 11:57:00;;;;;;;4.82;1.50;;;18.20;99.90;;;;;;4988008;28;20050;-81
2023/09/22 11:59:29;;;;;;;1.67;1.58;;;18.40;99.90;;;;;;4988305;28;20107;-80
2023/09/22 12:01:55;;;;;;;2.15;1.73;;;18.50;99.90;;;;;;4970808;28;20046;-81
2023/09/22 12:04:22;;;;;;;1.80;1.40;;;18.50;99.90;;;;;;4970264;28;20157;-81
2023/09/22 12:06:51;;;;;;;3.03;1.73;;;18.50;99.90;;;;;;4988374;28;20153;-80
2023/09/22 12:09:17;;;;;;;2.20;2.00;;;18.40;99.90;;;;;;4970614;28;20077;-80
2023/09/22 12:11:44;;;;;;;2.17;1.85;;;18.40;99.90;;;;;;4987383;28;20074;-81
2023/09/22 12:14:11;;;;;;;3.20;2.00;;;18.30;99.90;;;;;;4971154;28;20097;-81
2023/09/22 12:16:37;;;;;;;2.50;1.50;;;18.70;99.90;;;;;;4966683;28;20054;-80
2023/09/22 12:19:04;;;;;;;1.70;1.35;;;18.40;99.90;;;;;;4968229;28;20089;-81
2023/09/22 12:21:31;;;;;;;3.67;2.40;;;18.40;99.90;;;;;;4968815;28;20050;-80
2023/09/22 12:23:56;;;;;;;1.98;1.20;;;18.40;99.90;;;;;;4968465;28;20156;-81
2023/09/22 12:26:23;;;;;;;1.60;1.15;;;18.20;99.90;;;;;;4968110;28;20502;-79
2023/09/22 12:28:49;;;;;;;1.85;1.00;;;18.20;99.90;;;;;;4966809;28;20059;-81
2023/09/22 12:31:15;;;;;;;1.33;1.00;;;17.90;99.90;;;;;;4966705;28;20371;-81
2023/09/22 12:33:41;;;;;;;2.22;1.33;;;17.80;99.90;;;;;;4968390;28;20055;-81
2023/09/22 12:36:08;;;;;;;1.58;1.00;;;18.00;99.90;;;;;;4967033;28;20062;-81
2023/09/22 12:38:35;;;;;;;1.45;1.10;;;17.90;99.90;;;;;;4966974;28;20102;-81